Terminal Aerodrome Forecast
Issued by NWS

Home | Current Version | Previous Version | Graphics & Text | Print | Product List | Glossary On
Versions: 1 2 3 4 5 6 7 8 9 10 11 12 13 14 15 16 17 18 19
694
FTUS43 KABR 262339
TAFMBG
TAF
KMBG 262339Z 2700/2724 08011KT P6SM VCSH OVC010
     FM270200 06011KT P6SM -RA OVC008
     FM270500 06011KT 5SM -RA BR OVC003
     FM271000 04015KT 3SM RA BR OVC003
     FM271600 04016KT 3SM RA BR OVC010=

USA.gov is the U.S. government's official web portal to all federal, state and local government web resources and services.